Carte





Info_map




Focus/surveillance:


Airac




SID/STAR


Airport


Outils
Airports / Balises

Results
Station de LFRG    LFRG 121330Z AUTO 28005KT 230V330 CAVOK 09/03 Q1035 NOSIG    Mise à jourle: 2019-02-12 13:30    Tempéraure: 9°c     Point de rosée: 3°c     Direction du vent: 280°     Vitesse du vent: 5 Noeuds     Visibilité: 0 Mètre     Pression au niveau de la mer:1035 Millibar / 30,56 In/Hg     
Cible aucun focus Distance:    Suivi:  A suivre:  VS:    Speed:    Altitude:    Time to Target: